Tolar, New Mexico
Current Conditions -  °F | °C
As of 5:56 AM on Monday 24 Nov 2014 (Local Time) from K4MR Reporting Station
Clear Clear  
Wind Chill: 18°   Ceiling: Unl
Heat Index: 28°   Visibility: 10mi
Dew Point: 25°   Wind: 12mph
Humidity: 89%   Direction: 240°WSW
Pressure: 30.05"   Gusts: NA
Location:  34.3861°N, 104.044°W
Report Text: K4MR 241256Z AUTO 24010KT 10SM CLR M02/M04 A3005 RMK AO2 SLP188 T10211037
Loading
Personal Weather Stations






























Interactive Weather Map New forecast layout! Learn more

10-Day Weather Forecast

Advertisements
Track Severe Weather on mobile